Time;durP1;ratioP1;P1;durP2;ratioP2;P2;SDS_P1;SDS_P2;PMS_P1;PMS_P2;Temp;Humidity;BMP_temperature;BMP_pressure;BME280_temperature;BME280_humidity;BME280_pressure;Samples;Min_cycle;Max_cycle;Signal;HPM_P1;HPM_P2
2023/07/12 00:00:00;;;;;;;0.00;0.00;;;;;;;16.98;100.00;100716.97;5053263;28;20049;-48
2023/07/12 00:02:26;;;;;;;0.00;0.00;;;;;;;16.93;100.00;100718.69;5052829;28;20362;-49
2023/07/12 00:04:52;;;;;;;0.00;0.00;;;;;;;16.92;100.00;100716.94;5052556;28;20120;-48
2023/07/12 00:07:18;;;;;;;0.00;0.00;;;;;;;16.90;100.00;100713.41;5053345;28;20021;-49
2023/07/12 00:09:43;;;;;;;0.00;0.00;;;;;;;16.91;100.00;100715.19;5052901;28;20028;-49
2023/07/12 00:12:08;;;;;;;0.00;0.00;;;;;;;16.81;100.00;100721.22;5052402;28;20519;-49
2023/07/12 00:14:34;;;;;;;0.00;0.00;;;;;;;16.82;100.00;100715.16;5052810;28;20021;-45
2023/07/12 00:16:59;;;;;;;0.00;0.00;;;;;;;16.76;100.00;100722.09;5053044;28;20022;-48
2023/07/12 00:19:24;;;;;;;0.00;0.00;;;;;;;16.73;100.00;100732.50;5051831;28;20021;-46
2023/07/12 00:21:50;;;;;;;0.00;0.00;;;;;;;16.67;100.00;100742.88;5053013;28;20182;-47
2023/07/12 00:24:16;;;;;;;0.00;0.00;;;;;;;16.67;100.00;100753.31;5052958;28;20021;-47
2023/07/12 00:26:41;;;;;;;0.10;0.10;;;;;;;16.78;100.00;100756.81;5051967;28;20147;-50
2023/07/12 00:29:08;;;;;;;0.00;0.00;;;;;;;16.77;100.00;100749.84;5052877;28;20045;-49
2023/07/12 00:31:35;;;;;;;0.00;0.00;;;;;;;16.81;100.00;100753.34;5052502;28;20115;-47
2023/07/12 00:34:00;;;;;;;0.00;0.00;;;;;;;16.86;100.00;100753.34;5052303;28;20286;-46
2023/07/12 00:36:32;;;;;;;0.00;0.00;;;;;;;16.83;100.00;100763.75;5052697;28;20013;-48
2023/07/12 00:38:59;;;;;;;0.00;0.00;;;;;;;16.82;100.00;100769.81;5052925;28;20155;-49
2023/07/12 00:42:02;;;;;;;0.00;0.00;;;;;;;16.88;100.00;100778.50;5051695;28;20082;-48
2023/07/12 00:44:36;;;;;;;0.00;0.00;;;;;;;16.84;100.00;100773.31;5040975;28;20041;-47
2023/07/12 00:47:02;;;;;;;0.00;0.00;;;;;;;16.85;100.00;100783.72;5052051;28;20025;-45
2023/07/12 00:49:27;;;;;;;0.00;0.00;;;;;;;16.87;100.00;100788.91;5052400;28;20017;-50
2023/07/12 00:52:00;;;;;;;0.00;0.00;;;;;;;16.88;100.00;100791.50;5052546;28;20036;-47
2023/07/12 00:54:59;;;;;;;0.10;0.10;;;;;;;16.94;100.00;100794.19;5051577;28;20025;-49
2023/07/12 00:57:31;;;;;;;0.00;0.00;;;;;;;16.94;100.00;100806.34;5056289;28;20358;-47
2023/07/12 01:00:10;;;;;;;0.00;0.00;;;;;;;16.89;100.00;100810.63;5056727;28;20013;-48
2023/07/12 01:02:41;;;;;;;0.00;0.00;;;;;;;16.86;100.00;100813.19;5055718;28;20111;-46
2023/07/12 01:05:08;;;;;;;0.00;0.00;;;;;;;16.90;100.00;100809.75;5056478;28;20031;-49
2023/07/12 01:07:34;;;;;;;0.00;0.00;;;;;;;16.86;100.00;100814.09;5056203;28;20026;-49
2023/07/12 01:09:59;;;;;;;0.00;0.00;;;;;;;16.84;100.00;100807.13;5055563;28;20025;-47
2023/07/12 01:12:24;;;;;;;0.05;0.05;;;;;;;16.81;100.00;100812.31;5056191;28;20082;-49
2023/07/12 01:14:50;;;;;;;0.00;0.00;;;;;;;16.75;100.00;100824.44;5055675;28;20039;-49
2023/07/12 01:17:16;;;;;;;0.00;0.00;;;;;;;16.73;100.00;100821.00;5056266;28;20029;-48
2023/07/12 01:19:41;;;;;;;0.00;0.00;;;;;;;16.73;100.00;100821.00;5055921;28;20025;-49
2023/07/12 01:22:08;;;;;;;0.00;0.00;;;;;;;16.67;100.00;100794.94;5055385;28;20086;-47
2023/07/12 01:24:34;;;;;;;0.00;0.00;;;;;;;16.65;100.00;100765.41;5056014;28;20104;-49
2023/07/12 01:27:10;;;;;;;0.00;0.00;;;;;;;16.60;100.00;100773.22;5056255;28;20429;-49
2023/07/12 01:29:35;;;;;;;0.00;0.00;;;;;;;16.59;100.00;100762.78;5055139;28;20057;-47
2023/07/12 01:32:00;;;;;;;0.00;0.00;;;;;;;16.56;100.00;100771.47;5055897;28;20056;-49
2023/07/12 01:34:26;;;;;;;0.00;0.00;;;;;;;16.44;100.00;100787.88;5055951;28;20060;-49
2023/07/12 01:36:51;;;;;;;0.10;0.10;;;;;;;16.39;100.00;100787.00;5055346;28;20107;-50
2023/07/12 01:39:16;;;;;;;0.00;0.00;;;;;;;16.30;100.00;100789.56;5055954;28;20037;-48
2023/07/12 01:41:42;;;;;;;0.00;0.00;;;;;;;16.20;100.00;100764.38;5055739;28;20055;-49
2023/07/12 01:44:07;;;;;;;0.00;0.00;;;;;;;16.09;100.00;100764.34;5054897;28;20025;-46
2023/07/12 01:46:33;;;;;;;0.00;0.00;;;;;;;16.05;100.00;100781.63;5055605;28;20025;-49
2023/07/12 01:48:58;;;;;;;0.00;0.00;;;;;;;16.02;100.00;100767.75;5055664;28;20028;-48
2023/07/12 01:51:23;;;;;;;0.05;0.05;;;;;;;16.08;100.00;100763.44;5054801;28;20025;-48
2023/07/12 01:53:49;;;;;;;0.00;0.00;;;;;;;15.98;100.00;100740.00;5055831;28;20079;-49
2023/07/12 01:56:15;;;;;;;0.00;0.00;;;;;;;15.93;100.00;100738.25;5055772;28;20033;-48
2023/07/12 01:58:41;;;;;;;0.00;0.00;;;;;;;15.95;100.00;100730.44;5054449;28;20017;-49
2023/07/12 02:01:06;;;;;;;0.10;0.05;;;;;;;15.85;100.00;100737.31;5055418;28;20066;-46
2023/07/12 02:03:31;;;;;;;0.00;0.00;;;;;;;15.80;100.00;100729.47;5055238;28;20481;-46
2023/07/12 02:05:57;;;;;;;0.00;0.00;;;;;;;15.74;100.00;100763.22;5054872;28;20027;-48
2023/07/12 02:08:23;;;;;;;0.10;0.10;;;;;;;15.68;100.00;100739.78;5054159;28;20114;-45
2023/07/12 02:10:48;;;;;;;0.00;0.00;;;;;;;15.62;100.00;100737.13;5055416;28;20032;-48
2023/07/12 02:13:14;;;;;;;0.00;0.00;;;;;;;15.56;100.00;100721.53;5054469;28;20033;-47
2023/07/12 02:15:40;;;;;;;0.00;0.00;;;;;;;15.54;100.00;100705.91;5054961;28;20057;-47
2023/07/12 02:18:06;;;;;;;0.00;0.00;;;;;;;15.58;100.00;100785.63;5054800;28;20021;-46
2023/07/12 02:20:32;;;;;;;0.00;0.00;;;;;;;15.60;100.00;100785.63;5054785;28;20099;-48
2023/07/12 02:22:58;;;;;;;0.00;0.00;;;;;;;15.66;100.00;100784.78;5054725;28;20048;-48
2023/07/12 02:25:23;;;;;;;0.00;0.00;;;;;;;15.62;100.00;100770.91;5054096;28;20021;-47
2023/07/12 02:27:49;;;;;;;0.00;0.00;;;;;;;15.56;100.00;100789.06;5055005;28;20174;-48
2023/07/12 02:30:26;;;;;;;0.00;0.00;;;;;;;15.58;100.00;100788.22;5054804;28;20362;-47
2023/07/12 02:32:52;;;;;;;0.10;0.10;;;;;;;15.55;100.00;100777.78;5054425;28;20028;-49
2023/07/12 02:35:19;;;;;;;0.00;0.00;;;;;;;15.47;100.00;100753.50;5055058;28;20032;-49
2023/07/12 02:37:44;;;;;;;0.00;0.00;;;;;;;15.45;100.00;100752.59;5054703;28;20021;-46
2023/07/12 02:40:11;;;;;;;0.10;0.10;;;;;;;15.44;100.00;100758.66;5054104;28;20020;-46
2023/07/12 02:42:37;;;;;;;0.10;0.10;;;;;;;15.38;100.00;100756.88;5054307;28;20492;-49
2023/07/12 02:45:04;;;;;;;0.00;0.00;;;;;;;15.35;100.00;100748.19;5054432;28;20029;-48
2023/07/12 02:47:29;;;;;;;0.00;0.00;;;;;;;15.40;100.00;100772.47;5053489;28;20470;-47
2023/07/12 02:49:55;;;;;;;0.00;0.00;;;;;;;15.36;100.00;100766.38;5054458;28;20061;-48
2023/07/12 02:52:20;;;;;;;0.10;0.10;;;;;;;15.39;100.00;100776.81;5054619;28;20048;-47
2023/07/12 02:54:45;;;;;;;0.00;0.00;;;;;;;15.34;100.00;100777.59;5053345;28;20028;-48
2023/07/12 02:57:13;;;;;;;0.10;0.10;;;;;;;15.30;100.00;100774.13;5054396;28;20111;-48
2023/07/12 02:59:38;;;;;;;;;;;;;;;15.39;100.00;100782.00;5054525;28;20072;-49
2023/07/12 03:02:08;;;;;;;0.00;0.00;;;;;;;15.25;100.00;100783.59;5053777;28;19917;-47
2023/07/12 03:04:35;;;;;;;0.10;0.10;;;;;;;15.29;100.00;100783.63;5054164;28;20036;-48
2023/07/12 03:07:00;;;;;;;0.10;0.00;;;;;;;15.26;100.00;100782.72;5054358;28;20029;-47
2023/07/12 03:09:26;;;;;;;0.00;0.00;;;;;;;15.24;100.00;100776.66;5053268;28;20538;-49
2023/07/12 03:11:51;;;;;;;0.00;0.00;;;;;;;15.25;100.00;100781.88;5054301;28;20027;-48
2023/07/12 03:14:22;;;;;;;0.00;0.00;;;;;;;15.20;100.00;100787.88;5054029;28;20025;-47
2023/07/12 03:16:47;;;;;;;0.10;0.10;;;;;;;15.20;100.00;100785.28;5053947;28;20016;-46
2023/07/12 03:19:14;;;;;;;0.10;0.10;;;;;;;15.21;100.00;100792.19;5053890;28;20067;-47
2023/07/12 03:21:39;;;;;;;0.00;0.00;;;;;;;15.14;100.00;100797.34;5052852;28;20132;-46
2023/07/12 03:24:06;;;;;;;0.10;0.10;;;;;;;15.18;100.00;100781.78;5053992;28;20052;-48
2023/07/12 03:26:32;;;;;;;0.00;0.00;;;;;;;15.13;100.00;100795.59;5053643;28;20025;-44
2023/07/12 03:28:58;;;;;;;0.10;0.10;;;;;;;15.11;100.00;100791.25;5053002;28;20043;-49
2023/07/12 03:31:25;;;;;;;0.00;0.00;;;;;;;15.11;100.00;100788.66;5053475;28;20025;-49
2023/07/12 03:33:50;;;;;;;0.00;0.00;;;;;;;15.09;100.00;100793.84;5053620;28;20024;-48
2023/07/12 03:36:16;;;;;;;0.10;0.10;;;;;;;15.13;100.00;100789.53;5052999;28;20021;-46
2023/07/12 03:38:41;;;;;;;0.10;0.10;;;;;;;15.07;100.00;100811.09;5053347;28;20025;-49
2023/07/12 03:41:10;;;;;;;0.00;0.00;;;;;;;15.03;100.00;100800.66;5053414;28;20397;-48
2023/07/12 03:43:35;;;;;;;0.10;0.10;;;;;;;15.06;100.00;100809.34;5052552;28;20102;-49
2023/07/12 03:46:02;;;;;;;0.00;0.00;;;;;;;15.07;100.00;100815.44;5053564;28;20025;-48
2023/07/12 03:48:28;;;;;;;0.00;0.00;;;;;;;15.02;100.00;100817.13;5053264;28;20090;-47
2023/07/12 03:50:56;;;;;;;0.00;0.00;;;;;;;15.04;100.00;100820.59;5052710;28;20021;-49
2023/07/12 03:53:23;;;;;;;0.32;0.00;;;;;;;15.07;100.00;100824.09;5053271;28;20036;-43
2023/07/12 03:55:48;;;;;;;0.10;0.10;;;;;;;15.07;100.00;100815.44;5053282;28;20513;-47
2023/07/12 03:58:17;;;;;;;0.00;0.00;;;;;;;15.04;100.00;100825.78;5052531;28;20113;-49
2023/07/12 04:00:43;;;;;;;0.00;0.00;;;;;;;15.03;100.00;100824.91;5053091;28;20040;-48
2023/07/12 04:03:10;;;;;;;0.00;0.00;;;;;;;15.01;100.00;100829.22;5053358;28;20032;-48
2023/07/12 04:05:40;;;;;;;0.00;0.00;;;;;;;14.95;100.00;100829.13;5052187;28;20048;-48
2023/07/12 04:08:06;;;;;;;0.10;0.10;;;;;;;14.95;100.00;100829.13;5053072;28;20025;-45
2023/07/12 04:10:33;;;;;;;0.00;0.00;;;;;;;14.97;100.00;100827.44;5052688;28;20033;-48
2023/07/12 04:12:58;;;;;;;0.10;0.10;;;;;;;14.95;100.00;100829.13;5052247;28;20028;-49
2023/07/12 04:15:24;;;;;;;0.00;0.00;;;;;;;14.93;100.00;100825.66;5052975;28;20021;-49
2023/07/12 04:17:50;;;;;;;0.10;0.10;;;;;;;14.96;100.00;100833.47;5052247;28;20036;-43
2023/07/12 04:20:15;;;;;;;0.10;0.10;;;;;;;14.95;100.00;100836.91;5053046;28;20040;-44
2023/07/12 04:22:40;;;;;;;0.10;0.10;;;;;;;14.92;100.00;100837.75;5052510;28;20124;-48
2023/07/12 04:25:08;;;;;;;0.03;0.03;;;;;;;14.89;100.00;100844.66;5052037;28;20025;-44
2023/07/12 04:27:37;;;;;;;0.00;0.00;;;;;;;14.91;100.00;100842.94;5052732;28;20029;-48
2023/07/12 04:30:08;;;;;;;0.00;0.00;;;;;;;14.89;100.00;100839.47;5052512;28;20025;-46
2023/07/12 04:32:34;;;;;;;0.03;0.03;;;;;;;14.89;100.00;100842.06;5051795;28;20053;-48
2023/07/12 04:34:59;;;;;;;0.00;0.00;;;;;;;14.92;100.00;100842.09;5052818;28;20031;-48
2023/07/12 04:37:24;;;;;;;0.10;0.10;;;;;;;14.95;100.00;100842.09;5052395;28;20024;-46
2023/07/12 04:39:50;;;;;;;0.10;0.10;;;;;;;14.98;100.00;100836.97;5051832;28;20396;-47
2023/07/12 04:42:15;;;;;;;0.00;0.00;;;;;;;15.05;100.00;100845.69;5052627;28;20079;-43
2023/07/12 04:44:40;;;;;;;0.10;0.10;;;;;;;15.06;100.00;100845.69;5052578;28;20116;-45
2023/07/12 04:47:07;;;;;;;0.00;0.00;;;;;;;15.03;100.00;100845.69;5052018;28;20025;-44
2023/07/12 04:49:32;;;;;;;0.00;0.00;;;;;;;15.02;100.00;100837.88;5052435;28;20534;-47
2023/07/12 04:51:58;;;;;;;0.00;0.00;;;;;;;15.00;100.00;100835.25;5052599;28;20029;-49
2023/07/12 04:54:24;;;;;;;0.10;0.10;;;;;;;14.96;100.00;100838.66;5051665;28;20025;-48
2023/07/12 04:56:49;;;;;;;0.10;0.10;;;;;;;14.94;100.00;100840.38;5052716;28;20096;-48
2023/07/12 04:59:15;;;;;;;0.00;0.00;;;;;;;14.90;100.00;100838.59;5052648;28;20392;-48
2023/07/12 05:01:41;;;;;;;0.00;0.00;;;;;;;14.88;100.00;100846.34;5051703;28;20439;-43
2023/07/12 05:04:06;;;;;;;0.10;0.10;;;;;;;14.90;100.00;100848.97;5052440;28;20082;-45
2023/07/12 05:06:32;;;;;;;0.10;0.10;;;;;;;14.90;100.00;100839.47;5052278;28;20481;-47
2023/07/12 05:08:58;;;;;;;0.00;0.00;;;;;;;14.90;100.00;100851.56;5051658;28;20469;-49
2023/07/12 05:11:23;;;;;;;0.00;0.00;;;;;;;14.90;100.00;100848.97;5052431;28;20021;-44
2023/07/12 05:13:48;;;;;;;0.10;0.10;;;;;;;14.91;100.00;100858.50;5052535;28;20033;-48
2023/07/12 05:16:14;;;;;;;0.00;0.00;;;;;;;14.94;100.00;100861.16;5051566;28;20037;-44
2023/07/12 05:18:39;;;;;;;0.00;0.00;;;;;;;14.97;100.00;100862.03;5052151;28;20548;-45
2023/07/12 05:21:05;;;;;;;0.10;0.10;;;;;;;15.04;100.00;100862.09;5051465;28;20033;-45
2023/07/12 05:23:30;;;;;;;0.00;0.00;;;;;;;15.09;100.00;100858.72;5051754;28;20053;-47
2023/07/12 05:25:56;;;;;;;0.00;0.00;;;;;;;15.20;100.00;100858.84;5052292;28;20029;-48
2023/07/12 05:28:22;;;;;;;0.08;0.08;;;;;;;15.19;100.00;100858.81;5051596;28;20021;-43
2023/07/12 05:30:48;;;;;;;0.00;0.00;;;;;;;15.17;100.00;100857.94;5052097;28;20500;-46
2023/07/12 05:33:14;;;;;;;0.10;0.10;;;;;;;15.19;100.00;100858.81;5052330;28;20044;-47
2023/07/12 05:35:40;;;;;;;0.10;0.10;;;;;;;15.23;100.00;100856.25;5051220;28;20373;-48
2023/07/12 05:38:05;;;;;;;0.08;0.08;;;;;;;15.29;100.00;100869.31;5052139;28;20029;-47
2023/07/12 05:40:31;;;;;;;0.10;0.10;;;;;;;15.32;100.00;100868.47;5051906;28;20025;-43
2023/07/12 05:42:57;;;;;;;0.00;0.00;;;;;;;15.36;100.00;100874.56;5052877;28;20025;-47
2023/07/12 05:45:25;;;;;;;0.00;0.00;;;;;;;15.45;100.00;100885.06;5055773;28;20491;-45
2023/07/12 05:47:51;;;;;;;0.00;0.00;;;;;;;15.48;100.00;100874.72;5055588;28;20358;-46
2023/07/12 05:50:19;;;;;;;0.00;0.00;;;;;;;15.48;100.00;100878.16;5054833;28;20491;-50
2023/07/12 05:52:46;;;;;;;0.03;0.03;;;;;;;15.54;100.00;100881.69;5055472;28;20029;-43
2023/07/12 05:55:14;;;;;;;0.00;0.00;;;;;;;15.61;100.00;100880.91;5055554;28;20027;-44
2023/07/12 05:57:39;;;;;;;0.00;0.00;;;;;;;15.67;100.00;100883.53;5054656;28;20021;-47
2023/07/12 06:00:07;;;;;;;0.00;0.00;;;;;;;15.67;100.00;100880.94;5055652;28;20416;-48
2023/07/12 06:02:33;;;;;;;0.10;0.10;;;;;;;15.73;100.00;100891.38;5055328;28;20029;-49
2023/07/12 06:04:58;;;;;;;0.10;0.10;;;;;;;15.77;100.00;100887.94;5054564;28;20116;-44
2023/07/12 06:07:23;;;;;;;0.00;0.00;;;;;;;15.90;100.00;100903.69;5055055;28;20025;-47
2023/07/12 06:09:49;;;;;;;0.10;0.10;;;;;;;15.89;100.00;100895.00;5055479;28;20079;-46
2023/07/12 06:12:14;;;;;;;0.00;0.00;;;;;;;15.90;100.00;100895.91;5054691;28;20045;-47
2023/07/12 06:14:39;;;;;;;0.10;0.10;;;;;;;15.91;100.00;100884.66;5054964;28;20052;-44
2023/07/12 06:17:06;;;;;;;0.00;0.00;;;;;;;15.98;100.00;100891.63;5055257;28;20396;-44
2023/07/12 06:19:31;;;;;;;0.05;0.05;;;;;;;16.07;100.00;100901.22;5053938;28;20453;-48
2023/07/12 06:21:57;;;;;;;0.03;0.03;;;;;;;16.13;100.00;100898.69;5054720;28;20501;-47
2023/07/12 06:24:22;;;;;;;0.10;0.00;;;;;;;16.15;100.00;100888.28;5054290;28;20107;-43
2023/07/12 06:26:47;;;;;;;0.10;0.10;;;;;;;16.16;100.00;100906.50;5055169;28;20070;-46
2023/07/12 06:29:13;;;;;;;0.10;0.10;;;;;;;16.20;100.00;100900.44;5055102;28;20029;-47
2023/07/12 06:31:38;;;;;;;0.00;0.00;;;;;;;16.35;100.00;100906.63;5054009;28;20075;-45
2023/07/12 06:34:04;;;;;;;0.10;0.10;;;;;;;16.52;100.00;100901.53;5054678;28;20056;-46
2023/07/12 06:36:32;;;;;;;0.08;0.08;;;;;;;16.73;100.00;100909.47;5054653;28;20020;-47
2023/07/12 06:38:57;;;;;;;0.00;0.00;;;;;;;16.81;100.00;100914.72;5054159;28;20047;-43
2023/07/12 06:41:23;;;;;;;0.10;0.10;;;;;;;16.92;100.00;100917.38;5054539;28;20473;-48
2023/07/12 06:43:48;;;;;;;0.00;0.00;;;;;;;16.90;100.00;100938.22;5054882;28;20029;-44
2023/07/12 06:46:14;;;;;;;0.10;0.10;;;;;;;16.84;100.00;100947.69;5053948;28;20481;-47
2023/07/12 06:48:40;;;;;;;0.00;0.00;;;;;;;16.75;100.00;100949.38;5054342;28;20408;-40
2023/07/12 06:51:05;;;;;;;0.00;0.00;;;;;;;16.69;100.00;100944.13;5054478;28;20017;-45
2023/07/12 06:53:30;;;;;;;0.00;0.00;;;;;;;16.68;100.00;100944.13;5053449;28;20088;-48
2023/07/12 06:55:56;;;;;;;0.00;0.00;;;;;;;16.63;100.00;100946.72;5054716;28;20021;-47
2023/07/12 06:58:22;;;;;;;0.10;0.10;;;;;;;16.64;100.00;100956.22;5054839;28;20139;-45
2023/07/12 07:00:47;;;;;;;0.00;0.00;;;;;;;16.62;100.00;100966.63;5053695;28;20067;-48
2023/07/12 07:03:13;;;;;;;0.00;0.00;;;;;;;16.64;100.00;100956.22;5054129;28;20021;-42
2023/07/12 07:05:40;;;;;;;0.10;0.10;;;;;;;16.57;100.00;100960.53;5053931;28;20094;-44
2023/07/12 07:08:06;;;;;;;0.05;0.05;;;;;;;16.61;100.00;100966.63;5053680;28;20107;-41
2023/07/12 07:10:33;;;;;;;0.05;0.05;;;;;;;16.70;100.00;100969.28;5054008;28;20071;-47
2023/07/12 07:12:58;;;;;;;0.00;0.00;;;;;;;16.72;100.00;100974.50;5054270;28;20029;-45
2023/07/12 07:15:24;;;;;;;0.10;0.10;;;;;;;16.64;100.00;100977.06;5053039;28;20105;-44
2023/07/12 07:17:49;;;;;;;0.00;0.00;;;;;;;16.65;100.00;100981.41;5054096;28;20036;-46
2023/07/12 07:20:14;;;;;;;0.00;0.00;;;;;;;16.77;100.00;100978.00;5054252;28;20036;-47
2023/07/12 07:22:40;;;;;;;0.00;0.00;;;;;;;16.90;100.00;100973.75;5052820;28;20048;-46
2023/07/12 07:25:06;;;;;;;0.00;0.00;;;;;;;17.01;100.00;100974.69;5054055;28;20101;-46
2023/07/12 07:27:31;;;;;;;0.08;0.08;;;;;;;17.22;100.00;100980.88;5053496;28;20071;-45
2023/07/12 07:29:56;;;;;;;0.00;0.00;;;;;;;17.40;100.00;100977.47;5053323;28;20417;-44
2023/07/12 07:32:22;;;;;;;0.00;0.00;;;;;;;17.61;100.00;100989.69;5053953;28;20032;-45
2023/07/12 07:34:47;;;;;;;0.10;0.10;;;;;;;17.66;100.00;100985.34;5053033;28;20021;-42
2023/07/12 07:37:14;;;;;;;0.10;0.10;;;;;;;17.97;100.00;100989.81;5053788;28;20483;-46
2023/07/12 07:39:39;;;;;;;0.00;0.00;;;;;;;18.06;100.00;100993.31;5053590;28;20035;-43
2023/07/12 07:42:05;;;;;;;0.00;0.00;;;;;;;18.06;99.72;100990.69;5053028;28;20037;-47
2023/07/12 07:44:30;;;;;;;0.00;0.00;;;;;;;17.92;100.00;101002.78;5053071;28;20389;-43
2023/07/12 07:46:55;;;;;;;0.00;0.00;;;;;;;17.97;100.00;101001.09;5053411;28;20477;-42
2023/07/12 07:49:21;;;;;;;0.00;0.00;;;;;;;17.96;100.00;101001.09;5052622;28;20104;-43
2023/07/12 07:51:46;;;;;;;0.00;0.00;;;;;;;18.19;100.00;100991.56;5053080;28;20387;-47
2023/07/12 07:54:11;;;;;;;0.00;0.00;;;;;;;18.42;99.22;101001.13;5053577;28;20024;-45
2023/07/12 07:56:37;;;;;;;0.00;0.00;;;;;;;18.45;96.20;101001.16;5052338;28;20117;-42
2023/07/12 07:59:02;;;;;;;0.00;0.00;;;;;;;18.53;96.26;101007.22;5053374;28;20029;-43
2023/07/12 08:01:27;;;;;;;0.00;0.00;;;;;;;18.64;95.84;101009.81;5052961;28;20028;-43
2023/07/12 08:03:53;;;;;;;0.00;0.00;;;;;;;18.55;94.88;101007.22;5052246;28;20417;-43
2023/07/12 08:06:18;;;;;;;0.00;0.00;;;;;;;18.64;95.56;101009.81;5052560;28;20028;-42
2023/07/12 08:08:43;;;;;;;0.00;0.00;;;;;;;18.59;94.39;101029.81;5053039;28;20440;-43
2023/07/12 08:11:09;;;;;;;0.00;0.00;;;;;;;18.54;94.06;101021.13;5052230;28;20033;-43
2023/07/12 08:13:35;;;;;;;0.00;0.00;;;;;;;18.35;93.01;101026.34;5052744;28;20027;-43
2023/07/12 08:16:01;;;;;;;0.00;0.00;;;;;;;18.33;94.95;101028.09;5053021;28;20021;-46
2023/07/12 08:18:26;;;;;;;0.00;0.00;;;;;;;18.34;95.39;101023.75;5051745;28;20079;-43
2023/07/12 08:20:54;;;;;;;0.10;0.10;;;;;;;18.53;95.51;101024.63;5053066;28;20060;-43
2023/07/12 08:23:19;;;;;;;0.00;0.00;;;;;;;18.64;94.02;101016.78;5052542;28;20041;-43
2023/07/12 08:25:51;;;;;;;0.00;0.00;;;;;;;18.91;94.63;101031.56;5051903;28;20136;-43
2023/07/12 08:28:17;;;;;;;0.00;0.00;;;;;;;18.99;91.69;101032.44;5052784;28;20480;-48
2023/07/12 08:30:42;;;;;;;0.00;0.00;;;;;;;18.86;89.44;101042.00;5052347;28;20120;-44
2023/07/12 08:33:07;;;;;;;0.00;0.00;;;;;;;18.78;89.58;101040.25;5052209;28;20021;-48
2023/07/12 08:35:33;;;;;;;0.00;0.00;;;;;;;18.79;90.41;101042.00;5052612;28;20098;-44
2023/07/12 08:37:58;;;;;;;0.00;0.00;;;;;;;19.02;91.86;101036.78;5052319;28;20032;-43
2023/07/12 08:40:24;;;;;;;0.05;0.05;;;;;;;19.00;89.99;101038.50;5052577;28;20032;-43
2023/07/12 08:42:50;;;;;;;0.00;0.00;;;;;;;18.90;87.80;101045.47;5052721;28;20134;-45
2023/07/12 08:45:25;;;;;;;0.00;0.00;;;;;;;18.88;89.09;101042.84;5051708;28;20036;-44
2023/07/12 08:47:57;;;;;;;0.00;0.00;;;;;;;19.12;89.85;101053.28;5052856;28;20079;-44
2023/07/12 08:50:23;;;;;;;0.00;0.00;;;;;;;19.03;88.61;101048.94;5052712;28;20488;-44
2023/07/12 08:52:49;;;;;;;0.00;0.00;;;;;;;19.14;89.69;101051.53;5051940;28;20029;-45
2023/07/12 08:55:18;;;;;;;0.00;0.00;;;;;;;19.42;89.44;101045.34;5052712;28;20047;-43
2023/07/12 08:57:47;;;;;;;0.00;0.00;;;;;;;19.47;86.47;101041.84;5052187;28;20028;-46
2023/07/12 09:00:19;;;;;;;0.00;0.00;;;;;;;19.63;87.63;101053.97;5051770;28;20423;-43
2023/07/12 09:02:45;;;;;;;0.00;0.00;;;;;;;19.71;85.27;101040.84;5051972;28;20059;-43
2023/07/12 09:05:18;;;;;;;0.00;0.00;;;;;;;19.64;84.39;101055.72;5052308;28;20064;-48
2023/07/12 09:08:08;;;;;;;0.00;0.00;;;;;;;19.77;84.95;101056.53;5051492;28;20037;-42
2023/07/12 09:10:41;;;;;;;0.10;0.10;;;;;;;19.78;84.72;101065.22;5052106;28;20103;-44
2023/07/12 09:13:10;;;;;;;0.00;0.00;;;;;;;19.80;83.62;101061.72;5051845;28;20021;-42
2023/07/12 09:15:48;;;;;;;0.00;0.00;;;;;;;19.70;84.14;101058.31;5052043;28;20465;-48
2023/07/12 09:18:26;;;;;;;0.00;0.00;;;;;;;19.86;85.66;101063.50;5056073;28;20119;-45
2023/07/12 09:20:51;;;;;;;0.00;0.00;;;;;;;19.87;83.19;101052.13;5055481;28;20017;-43
2023/07/12 09:23:17;;;;;;;0.00;0.00;;;;;;;19.96;82.84;101054.72;5055883;28;20055;-44
2023/07/12 09:25:47;;;;;;;0.00;0.00;;;;;;;20.31;84.36;101045.75;5055964;28;20408;-44
2023/07/12 09:28:14;;;;;;;0.00;0.00;;;;;;;20.50;80.98;101048.19;5055463;28;20028;-43
2023/07/12 09:30:39;;;;;;;0.00;0.00;;;;;;;20.38;78.59;101044.81;5055757;28;20079;-48
2023/07/12 09:33:06;;;;;;;0.00;0.00;;;;;;;20.31;78.34;101050.97;5056228;28;20033;-45
2023/07/12 09:35:45;;;;;;;0.00;0.00;;;;;;;20.24;78.33;101046.66;5054861;28;20373;-48
2023/07/12 09:38:17;;;;;;;0.00;0.00;;;;;;;20.61;79.02;101049.00;5056021;28;20029;-46
2023/07/12 09:40:48;;;;;;;0.00;0.00;;;;;;;20.60;76.56;101036.78;5055708;28;20075;-46
2023/07/12 09:43:24;;;;;;;0.00;0.00;;;;;;;20.24;74.10;101041.44;5055106;28;20037;-44
2023/07/12 09:45:54;;;;;;;0.00;0.00;;;;;;;20.06;76.61;101043.31;5055865;28;20492;-47
2023/07/12 09:48:25;;;;;;;0.00;0.00;;;;;;;20.21;77.80;101039.69;5055376;28;20086;-47
2023/07/12 09:51:15;;;;;;;0.00;0.00;;;;;;;20.39;75.27;101033.44;5055875;28;20032;-42
2023/07/12 09:53:49;;;;;;;0.00;0.00;;;;;;;20.63;75.64;101028.91;5055288;28;20384;-43
2023/07/12 09:56:21;;;;;;;0.00;0.00;;;;;;;20.89;75.71;101027.81;5054770;28;20025;-45
2023/07/12 09:58:58;;;;;;;0.00;0.00;;;;;;;21.04;75.85;101030.28;5055652;28;20048;-45
2023/07/12 10:01:54;;;;;;;0.00;0.00;;;;;;;21.22;72.58;101023.06;5055288;28;20029;-42
2023/07/12 10:04:49;;;;;;;0.00;0.00;;;;;;;21.53;73.98;101022.69;5054665;28;20431;-46
2023/07/12 10:07:46;;;;;;;0.00;0.00;;;;;;;21.80;72.60;101020.59;5055362;28;20674;-41
2023/07/12 10:10:27;;;;;;;0.00;0.00;;;;;;;21.58;70.29;101020.91;5045115;28;20037;-43
2023/07/12 10:13:31;;;;;;;0.00;0.00;;;;;;;21.69;68.56;101008.50;5055267;28;20040;-43
2023/07/12 10:15:58;;;;;;;0.00;0.00;;;;;;;22.09;68.30;101016.66;5055733;28;20029;-42
2023/07/12 10:18:29;;;;;;;;;;;;;;;22.32;66.91;101017.19;5054527;28;20029;-47
2023/07/12 10:20:55;;;;;;;0.00;0.00;;;;;;;22.37;66.10;101011.88;5055191;28;19917;-46
2023/07/12 10:23:25;;;;;;;0.00;0.00;;;;;;;22.51;67.42;101022.16;5054711;28;20056;-45
2023/07/12 10:25:59;;;;;;;0.00;0.00;;;;;;;23.07;64.20;101023.75;5054950;28;20531;-43
2023/07/12 10:28:47;;;;;;;0.00;0.00;;;;;;;23.81;57.75;101032.75;5054195;28;20017;-44
2023/07/12 10:31:30;;;;;;;0.00;0.00;;;;;;;24.43;54.07;101032.19;5051352;28;20033;-47
2023/07/12 10:34:08;;;;;;;0.00;0.00;;;;;;;24.16;53.74;101029.31;5054888;28;20060;-47
2023/07/12 10:36:34;;;;;;;0.00;0.00;;;;;;;24.72;51.52;101030.56;5054614;28;20528;-50
2023/07/12 10:39:01;;;;;;;0.00;0.00;;;;;;;25.07;51.63;101027.88;5054260;28;20017;-45
2023/07/12 10:41:35;;;;;;;0.00;0.00;;;;;;;25.04;50.02;101028.00;5054555;28;20055;-45
2023/07/12 10:44:18;;;;;;;0.00;0.00;;;;;;;24.90;50.80;101037.13;5054592;28;20021;-45
2023/07/12 10:46:48;;;;;;;0.05;0.00;;;;;;;24.49;51.74;101044.31;5053674;28;20070;-50
2023/07/12 10:49:20;;;;;;;0.00;0.00;;;;;;;24.58;49.82;101040.59;5054861;28;20036;-44
2023/07/12 10:52:10;;;;;;;0.00;0.00;;;;;;;25.52;51.47;101037.19;5053638;28;20055;-44
2023/07/12 10:54:35;;;;;;;0.00;0.00;;;;;;;26.19;45.50;101026.31;5054201;28;20401;-44
2023/07/12 10:57:06;;;;;;;0.00;0.00;;;;;;;26.00;44.94;101033.06;5054748;28;20028;-44
2023/07/12 10:59:32;;;;;;;0.00;0.00;;;;;;;26.23;45.80;101032.34;5053426;28;20025;-48
2023/07/12 11:02:03;;;;;;;0.00;0.00;;;;;;;26.25;45.66;101030.53;5054301;28;20036;-44
2023/07/12 11:04:31;;;;;;;0.00;0.00;;;;;;;25.97;44.00;101032.25;5054050;28;20477;-46
2023/07/12 11:07:12;;;;;;;0.00;0.00;;;;;;;26.29;43.68;101037.44;5053450;28;20100;-45
2023/07/12 11:09:44;;;;;;;0.00;0.00;;;;;;;26.21;44.66;101034.19;5053901;28;20495;-48
2023/07/12 11:12:15;;;;;;;0.00;0.00;;;;;;;26.83;44.17;101038.28;5054139;28;20055;-45
2023/07/12 11:14:43;;;;;;;0.00;0.00;;;;;;;27.13;43.25;101039.84;5053174;28;20135;-45
2023/07/12 11:17:09;;;;;;;0.00;0.00;;;;;;;27.50;42.73;101036.75;5054133;28;20104;-44
2023/07/12 11:19:40;;;;;;;0.08;0.00;;;;;;;27.66;41.48;101044.09;5053652;28;20108;-43
2023/07/12 11:22:19;;;;;;;0.00;0.00;;;;;;;26.90;42.96;101041.56;5053939;28;20049;-42